Time;durP1;ratioP1;P1;durP2;ratioP2;P2;SDS_P1;SDS_P2;PMS_P1;PMS_P2;Temp;Humidity;BMP_temperature;BMP_pressure;BME280_temperature;BME280_humidity;BME280_pressure;Samples;Min_cycle;Max_cycle;Signal;HPM_P1;HPM_P2
2023/07/07 00:00:15;;;;;;;6.20;3.00;;;;;;;13.54;84.27;101317.15;107323;1256;61189;-70
2023/07/07 00:02:42;;;;;;;7.10;3.10;;;;;;;13.51;84.21;101317.67;108163;1259;73371;-71
2023/07/07 00:05:09;;;;;;;6.40;3.00;;;;;;;13.48;84.59;101312.25;107637;1257;70141;-71
2023/07/07 00:07:36;;;;;;;5.70;3.10;;;;;;;13.43;85.05;101313.81;107720;1257;72348;-69
2023/07/07 00:10:03;;;;;;;5.40;2.90;;;;;;;13.39;85.06;101313.73;107710;1255;62056;-69
2023/07/07 00:12:30;;;;;;;6.50;3.10;;;;;;;13.35;85.52;101316.34;107532;1256;59608;-71
2023/07/07 00:14:57;;;;;;;5.70;2.80;;;;;;;13.31;85.75;101316.99;107385;1256;73699;-70
2023/07/07 00:17:24;;;;;;;6.90;3.20;;;;;;;13.27;85.84;101318.29;108000;1260;71810;-70
2023/07/07 00:19:52;;;;;;;4.60;2.90;;;;;;;13.23;85.89;101319.13;107943;1255;71243;-71
2023/07/07 00:22:19;;;;;;;4.70;2.90;;;;;;;13.19;86.03;101319.58;108368;1256;60712;-71
2023/07/07 00:24:46;;;;;;;6.10;2.80;;;;;;;13.17;86.29;101320.42;107746;1257;60394;-70
2023/07/07 00:27:14;;;;;;;4.90;2.80;;;;;;;13.13;86.42;101319.21;107692;1257;73718;-70
2023/07/07 00:29:41;;;;;;;6.70;3.40;;;;;;;13.10;86.54;101319.18;107823;1257;71241;-70
2023/07/07 00:32:08;;;;;;;7.10;3.30;;;;;;;13.08;86.84;101319.12;107496;1257;71526;-70
2023/07/07 00:34:35;;;;;;;5.00;3.00;;;;;;;13.05;86.93;101322.10;107769;1256;60944;-70
2023/07/07 00:37:01;;;;;;;5.90;3.20;;;;;;;13.03;87.11;101323.05;107969;1256;61173;-70
2023/07/07 00:39:28;;;;;;;5.10;3.10;;;;;;;13.00;87.29;101321.56;107530;1256;73975;-71
2023/07/07 00:41:55;;;;;;;4.20;2.90;;;;;;;12.98;87.51;101325.13;107679;1256;688794;-69
2023/07/07 00:44:28;;;;;;;6.10;3.20;;;;;;;12.97;87.83;101324.36;107742;1256;72704;-70
2023/07/07 00:46:55;;;;;;;6.90;3.10;;;;;;;12.96;87.92;101325.95;107424;1257;62447;-70
2023/07/07 00:49:23;;;;;;;5.20;3.00;;;;;;;12.94;88.02;101328.63;107862;1256;59422;-70
2023/07/07 00:51:59;;;;;;;5.80;3.10;;;;;;;12.92;88.15;101328.58;107679;1256;75462;-69
2023/07/07 00:54:31;;;;;;;5.40;2.80;;;;;;;12.90;88.16;101328.12;108093;1256;71216;-70
2023/07/07 00:56:59;;;;;;;6.20;3.00;;;;;;;12.86;88.20;101331.86;107542;1259;73102;-71
2023/07/07 00:59:37;;;;;;;7.10;2.70;;;;;;;12.83;88.21;101334.02;107924;1256;61266;-71
2023/07/07 01:02:15;;;;;;;5.60;2.70;;;;;;;12.79;87.94;101333.02;107778;1259;61060;-70
2023/07/07 01:04:48;;;;;;;5.50;3.00;;;;;;;12.75;88.17;101334.21;107543;1256;74729;-71
2023/07/07 01:07:20;;;;;;;6.40;2.50;;;;;;;12.71;88.26;101336.79;107889;1256;71114;-71
2023/07/07 01:09:47;;;;;;;5.30;3.00;;;;;;;12.68;88.45;101341.64;107772;1256;71516;-70
2023/07/07 01:12:15;;;;;;;7.40;3.00;;;;;;;12.65;88.50;101339.95;107675;1256;61250;-71
2023/07/07 01:14:44;;;;;;;6.20;2.90;;;;;;;12.62;88.96;101337.06;107805;1256;59464;-71
2023/07/07 01:17:28;;;;;;;6.90;2.90;;;;;;;12.59;89.25;101332.75;107590;1261;73464;-71
2023/07/07 01:20:03;;;;;;;6.30;3.40;;;;;;;12.57;89.41;101330.55;107791;1259;69807;-71
2023/07/07 01:22:56;;;;;;;5.50;3.20;;;;;;;12.55;89.75;101328.84;107731;1256;73280;-71
2023/07/07 01:25:55;;;;;;;6.30;3.20;;;;;;;12.52;90.27;101333.38;107511;1256;61270;-71
2023/07/07 01:28:44;;;;;;;6.30;3.40;;;;;;;12.49;90.55;101331.66;108112;1256;60365;-71
2023/07/07 01:31:17;;;;;;;6.10;3.50;;;;;;;12.48;90.92;101334.26;107780;1256;73516;-71
2023/07/07 01:33:46;;;;;;;8.10;3.60;;;;;;;12.46;91.37;101331.59;107872;1257;73035;-70
2023/07/07 01:36:13;;;;;;;4.80;3.10;;;;;;;12.45;91.42;101329.73;108048;1256;71763;-71
2023/07/07 01:38:45;;;;;;;8.20;3.20;;;;;;;12.45;91.58;101328.01;107886;1256;62024;-72
2023/07/07 01:41:33;;;;;;;7.30;3.40;;;;;;;12.42;91.44;101329.34;107813;1256;61260;-73
2023/07/07 01:44:07;;;;;;;6.30;3.30;;;;;;;12.40;91.39;101334.54;107621;1256;74915;-70
2023/07/07 01:46:42;;;;;;;7.40;3.50;;;;;;;12.38;91.28;101329.64;107722;1257;70039;-71
2023/07/07 01:49:16;;;;;;;6.50;3.50;;;;;;;12.35;91.29;101332.98;108076;1257;72064;-71
2023/07/07 01:51:51;;;;;;;5.90;3.70;;;;;;;12.33;91.56;101332.88;107729;1255;61343;-70
2023/07/07 01:54:19;;;;;;;8.10;3.80;;;;;;;12.30;91.81;101330.61;108021;1257;61196;-72
2023/07/07 01:56:47;;;;;;;6.60;3.60;;;;;;;12.25;91.82;101329.48;108426;1256;74591;-71
2023/07/07 01:59:15;;;;;;;6.90;3.70;;;;;;;12.21;91.98;101331.01;108009;1257;70809;-71
2023/07/07 02:01:44;;;;;;;7.40;3.60;;;;;;;12.16;91.90;101327.45;107553;1257;71451;-71
2023/07/07 02:04:11;;;;;;;6.10;3.40;;;;;;;12.11;92.14;101333.15;107530;1262;61313;-71
2023/07/07 02:06:38;;;;;;;6.30;3.40;;;;;;;12.06;92.40;101329.77;108224;1256;60499;-70
2023/07/07 02:09:05;;;;;;;8.30;4.10;;;;;;;12.02;92.48;101328.98;107526;1259;74625;-71
2023/07/07 02:11:32;;;;;;;6.50;3.60;;;;;;;11.99;92.74;101330.58;107350;1257;71344;-72
2023/07/07 02:14:02;;;;;;;6.00;3.70;;;;;;;11.97;92.93;101327.45;107983;1260;71511;-71
2023/07/07 02:16:28;;;;;;;7.50;3.90;;;;;;;11.93;93.03;101327.33;107690;1256;60927;-71
2023/07/07 02:18:55;;;;;;;6.90;3.60;;;;;;;11.91;93.38;101332.89;107832;1256;61253;-71
2023/07/07 02:21:22;;;;;;;6.80;3.80;;;;;;;11.90;93.44;101330.73;107421;1255;75274;-71
2023/07/07 02:23:52;;;;;;;7.70;3.70;;;;;;;11.88;93.82;101329.48;108085;1256;70538;-71
2023/07/07 02:26:18;;;;;;;6.60;3.90;;;;;;;11.86;94.05;101328.40;107674;1259;73270;-72
2023/07/07 02:28:46;;;;;;;5.40;3.80;;;;;;;11.86;94.10;101330.89;107387;1256;61244;-71
2023/07/07 02:31:14;;;;;;;7.20;4.30;;;;;;;11.85;94.15;101333.98;107800;1257;61266;-71
2023/07/07 02:33:41;;;;;;;7.10;3.90;;;;;;;11.85;94.26;101334.55;108158;1256;73382;-72
2023/07/07 02:36:09;;;;;;;7.30;3.70;;;;;;;11.84;94.36;101339.28;107782;1257;71203;-71
2023/07/07 02:38:35;;;;;;;6.40;3.80;;;;;;;11.82;94.57;101343.86;107555;1256;71525;-72
2023/07/07 02:41:03;;;;;;;6.10;3.80;;;;;;;11.82;94.99;101339.31;107394;1257;60852;-71
2023/07/07 02:43:30;;;;;;;5.50;3.80;;;;;;;11.82;95.09;101337.74;107804;1257;61179;-71
2023/07/07 02:45:57;;;;;;;7.20;4.20;;;;;;;11.82;95.20;101336.11;107787;1257;74648;-71
2023/07/07 02:48:23;;;;;;;5.80;3.80;;;;;;;11.82;95.26;101340.00;107634;1257;71240;-71
2023/07/07 02:51:08;;;;;;;6.30;3.80;;;;;;;11.81;95.22;101337.60;107453;1257;70990;-71
2023/07/07 02:53:36;;;;;;;6.80;3.70;;;;;;;11.82;95.40;101342.29;108140;1259;61416;-72
2023/07/07 02:56:04;;;;;;;5.40;3.60;;;;;;;11.82;95.47;101339.11;107609;1260;61228;-71
2023/07/07 02:58:31;;;;;;;5.50;3.80;;;;;;;11.83;95.53;101339.70;107484;1256;73245;-71
2023/07/07 03:01:09;;;;;;;5.50;3.80;;;;;;;11.84;95.58;101340.33;108048;1256;69954;-71
2023/07/07 03:03:41;;;;;;;5.10;3.80;;;;;;;11.86;95.70;101337.97;107535;1256;70848;-71
2023/07/07 03:06:11;;;;;;;6.70;3.70;;;;;;;11.89;95.79;101340.39;107450;1257;62047;-71
2023/07/07 03:08:39;;;;;;;5.50;3.80;;;;;;;11.92;95.84;101339.39;107928;1258;61141;-72
2023/07/07 03:11:08;;;;;;;5.40;3.50;;;;;;;11.94;95.78;101341.06;107533;1257;73489;-71
2023/07/07 03:13:36;;;;;;;6.20;3.90;;;;;;;11.97;95.69;101334.64;108344;1256;69424;-71
2023/07/07 03:16:11;;;;;;;7.80;3.80;;;;;;;12.01;95.60;101340.45;107660;1259;71578;-71
2023/07/07 03:18:41;;;;;;;16.00;5.40;;;;;;;12.05;95.50;101344.67;108213;1256;61126;-70
2023/07/07 03:21:08;;;;;;;8.20;3.90;;;;;;;12.10;95.72;101343.27;107231;1259;61130;-71
2023/07/07 03:23:36;;;;;;;6.30;3.70;;;;;;;12.14;95.35;101347.14;107557;1255;73398;-70
2023/07/07 03:26:08;;;;;;;5.70;3.40;;;;;;;12.18;95.15;101347.40;107460;1257;70029;-72
2023/07/07 03:28:35;;;;;;;5.60;3.30;;;;;;;12.22;95.03;101348.55;107637;1260;71525;-72
2023/07/07 03:31:22;;;;;;;4.90;3.10;;;;;;;12.26;94.73;101348.02;107594;1259;62593;-72
2023/07/07 03:33:51;;;;;;;6.70;3.50;;;;;;;12.29;94.52;101342.92;108230;1257;59079;-73
2023/07/07 03:36:20;;;;;;;4.10;3.30;;;;;;;12.35;94.49;101346.33;108196;1256;74774;-71
2023/07/07 03:38:48;;;;;;;5.20;3.30;;;;;;;12.40;94.24;101351.01;107499;1262;70125;-71
2023/07/07 03:41:21;;;;;;;5.20;3.30;;;;;;;12.46;94.04;101353.24;107767;1257;71197;-71
2023/07/07 03:43:48;;;;;;;5.50;3.50;;;;;;;12.53;94.10;101354.63;107621;1258;61997;-70
2023/07/07 03:46:17;;;;;;;6.10;3.40;;;;;;;12.58;93.76;101356.01;107497;1256;61229;-71
2023/07/07 03:48:45;;;;;;;5.80;3.10;;;;;;;12.64;93.65;101355.13;107536;1257;73504;-71
2023/07/07 03:51:14;;;;;;;6.30;3.20;;;;;;;12.72;93.72;101362.11;107760;1259;69932;-71
2023/07/07 03:53:45;;;;;;;4.30;2.80;;;;;;;12.79;93.26;101360.06;108063;1257;70481;-71
2023/07/07 03:56:13;;;;;;;5.40;3.20;;;;;;;12.87;93.12;101360.38;107506;1256;61833;-70
2023/07/07 03:58:42;;;;;;;4.90;3.00;;;;;;;12.93;92.87;101360.89;107429;1260;61254;-71
2023/07/07 04:01:11;;;;;;;7.20;3.20;;;;;;;12.99;92.71;101366.44;107608;1257;74688;-71
2023/07/07 04:03:37;;;;;;;7.00;3.30;;;;;;;13.04;92.35;101364.17;107314;1262;71276;-70
2023/07/07 04:06:05;;;;;;;6.20;3.90;;;;;;;13.08;92.20;101359.44;107585;1260;71794;-70
2023/07/07 04:08:33;;;;;;;7.40;3.10;;;;;;;13.15;92.05;101358.73;107628;1257;62074;-73
2023/07/07 04:11:08;;;;;;;7.70;3.10;;;;;;;13.20;91.89;101363.01;108236;1256;59384;-71
2023/07/07 04:13:37;;;;;;;4.90;2.90;;;;;;;13.25;91.53;101364.34;107655;1255;73511;-70
2023/07/07 04:16:10;;;;;;;5.30;2.80;;;;;;;13.30;91.05;101367.52;107597;1260;69574;-70
2023/07/07 04:18:37;;;;;;;7.10;2.70;;;;;;;13.35;90.75;101367.17;107789;1257;72441;-72
2023/07/07 04:21:10;;;;;;;7.90;3.10;;;;;;;13.41;90.59;101363.84;107594;1257;61909;-70
2023/07/07 04:23:42;;;;;;;4.90;2.90;;;;;;;13.46;90.12;101365.33;107693;1260;59273;-69
2023/07/07 04:26:10;;;;;;;4.90;2.80;;;;;;;13.51;90.22;101373.55;107877;1258;73706;-71
2023/07/07 04:28:37;;;;;;;4.70;2.80;;;;;;;13.56;89.81;101378.55;108148;1258;71179;-70
2023/07/07 04:31:07;;;;;;;7.10;3.00;;;;;;;13.63;89.65;101381.04;107975;1256;71266;-71
2023/07/07 04:33:35;;;;;;;4.30;2.90;;;;;;;13.69;89.49;101384.88;107621;1257;61270;-70
2023/07/07 04:36:05;;;;;;;5.40;3.10;;;;;;;13.77;89.02;101389.00;107647;1258;61248;-71
2023/07/07 04:38:32;;;;;;;6.30;3.30;;;;;;;13.82;88.68;101387.48;107852;1258;74742;-72
2023/07/07 04:41:21;;;;;;;5.40;2.50;;;;;;;13.85;88.54;101390.11;107498;1256;71352;-70
2023/07/07 04:43:50;;;;;;;7.30;2.80;;;;;;;13.94;88.35;101392.55;107367;1258;71714;-72
2023/07/07 04:46:23;;;;;;;6.30;2.80;;;;;;;14.01;88.46;101389.56;107998;1257;61719;-72
2023/07/07 04:48:50;;;;;;;5.40;2.80;;;;;;;14.08;88.27;101390.50;107833;1256;60040;-72
2023/07/07 04:51:18;;;;;;;4.50;2.50;;;;;;;14.15;88.12;101396.75;107971;1255;74666;-73
2023/07/07 04:53:45;;;;;;;6.00;2.70;;;;;;;14.23;87.87;101400.25;107589;1257;69731;-70
2023/07/07 04:56:15;;;;;;;4.80;2.50;;;;;;;14.31;87.65;101399.05;107833;1256;72018;-72
2023/07/07 04:58:43;;;;;;;5.60;2.50;;;;;;;14.37;87.33;101397.55;107524;1257;61413;-71
2023/07/07 05:01:15;;;;;;;5.00;2.40;;;;;;;14.42;86.99;101400.34;107751;1258;61158;-72
2023/07/07 05:03:45;;;;;;;5.60;2.80;;;;;;;14.46;86.52;101402.36;108063;1257;73551;-71
2023/07/07 05:06:12;;;;;;;6.80;2.50;;;;;;;14.48;86.31;101407.62;107971;1261;70136;-70
2023/07/07 05:08:41;;;;;;;5.20;2.30;;;;;;;14.52;86.28;101401.09;108154;1258;72768;-72
2023/07/07 05:11:13;;;;;;;5.40;2.70;;;;;;;14.57;86.07;101398.27;107747;1256;62088;-70
2023/07/07 05:13:40;;;;;;;6.10;2.30;;;;;;;14.64;86.07;101394.69;108136;1260;59255;-71
2023/07/07 05:16:09;;;;;;;3.80;2.10;;;;;;;14.73;85.97;101399.34;108252;1256;73512;-72
2023/07/07 05:18:37;;;;;;;5.30;2.20;;;;;;;14.82;85.82;101402.56;108120;1256;69836;-71
2023/07/07 05:21:04;;;;;;;5.90;2.40;;;;;;;14.92;85.74;101406.14;108077;1257;73572;-72
2023/07/07 05:23:32;;;;;;;5.50;2.40;;;;;;;15.01;85.18;101399.14;107470;1257;61708;-70
2023/07/07 05:25:59;;;;;;;4.40;2.30;;;;;;;15.12;84.58;101401.64;107785;1257;61230;-71
2023/07/07 05:28:27;;;;;;;7.20;2.10;;;;;;;15.21;84.28;101402.75;107784;1257;74666;-71
2023/07/07 05:30:54;;;;;;;5.80;2.40;;;;;;;15.33;83.71;101406.67;107852;1257;69693;-70
2023/07/07 05:33:22;;;;;;;4.00;2.10;;;;;;;15.44;83.63;101409.87;107912;1256;72865;-71
2023/07/07 05:35:51;;;;;;;6.00;2.10;;;;;;;15.56;83.40;101411.48;107613;1257;61298;-70
2023/07/07 05:38:19;;;;;;;4.40;1.90;;;;;;;15.68;82.92;101412.88;108369;1257;59538;-71
2023/07/07 05:40:46;;;;;;;3.40;2.00;;;;;;;15.79;82.05;101415.39;107599;1257;76339;-70
2023/07/07 05:43:13;;;;;;;7.10;2.20;;;;;;;15.93;82.94;101411.48;107821;1257;71156;-70
2023/07/07 05:45:41;;;;;;;8.70;2.80;;;;;;;16.25;83.26;101414.61;108048;1257;71496;-74
2023/07/07 05:48:09;;;;;;;7.00;2.50;;;;;;;16.73;83.57;101412.45;108071;1258;60868;-69
2023/07/07 05:50:36;;;;;;;6.40;2.10;;;;;;;17.22;81.28;101412.06;107790;1257;60682;-70
2023/07/07 05:53:03;;;;;;;6.20;2.20;;;;;;;17.55;79.18;101406.83;107758;1257;75623;-69
2023/07/07 05:55:35;;;;;;;3.70;1.90;;;;;;;17.71;76.68;101410.60;107943;1257;71250;-68
2023/07/07 05:58:03;;;;;;;5.90;2.10;;;;;;;17.71;75.86;101412.95;107921;1257;71461;-70
2023/07/07 06:00:33;;;;;;;5.10;2.10;;;;;;;17.70;75.70;101414.45;107396;1257;61276;-69
2023/07/07 06:02:59;;;;;;;5.10;2.00;;;;;;;17.75;75.31;101421.31;107008;1257;61215;-68
2023/07/07 06:05:29;;;;;;;4.40;1.70;;;;;;;17.78;74.88;101419.37;107850;1257;74957;-68
2023/07/07 06:07:57;;;;;;;5.20;2.50;;;;;;;17.81;74.33;101421.23;107192;1257;72532;-69
2023/07/07 06:10:27;;;;;;;5.20;2.10;;;;;;;17.86;74.32;101425.02;107339;1257;72427;-69
2023/07/07 06:12:54;;;;;;;5.90;2.90;;;;;;;17.95;74.08;101421.84;107050;1260;61774;-69
2023/07/07 06:15:20;;;;;;;6.00;2.00;;;;;;;18.06;73.81;101421.69;107144;1258;61379;-68
2023/07/07 06:17:48;;;;;;;5.20;1.80;;;;;;;18.16;73.26;101423.74;108217;1256;74782;-69
2023/07/07 06:20:15;;;;;;;4.50;1.80;;;;;;;18.26;73.13;101426.59;108102;1258;69966;-68
2023/07/07 06:22:42;;;;;;;6.80;2.00;;;;;;;18.39;72.98;101429.80;107724;1256;70975;-69
2023/07/07 06:25:10;;;;;;;4.20;1.70;;;;;;;18.52;72.41;101429.36;107527;1257;62039;-70
2023/07/07 06:27:37;;;;;;;7.60;1.70;;;;;;;18.65;71.51;101433.23;107717;1256;61264;-70
2023/07/07 06:30:04;;;;;;;3.20;1.80;;;;;;;18.79;70.88;101435.11;107897;1256;75156;-69
2023/07/07 06:32:31;;;;;;;4.30;1.70;;;;;;;18.95;70.07;101435.02;108056;1256;69693;-72
2023/07/07 06:34:57;;;;;;;3.60;1.50;;;;;;;19.10;69.24;101435.79;107766;1257;72671;-69
2023/07/07 06:37:24;;;;;;;3.80;1.90;;;;;;;19.24;68.59;101433.01;107886;1256;62062;-69
2023/07/07 06:39:51;;;;;;;6.00;2.90;;;;;;;19.39;67.85;101433.92;107719;1256;60489;-69
2023/07/07 06:42:18;;;;;;;4.20;1.60;;;;;;;19.51;66.90;101434.59;108186;1256;74646;-69
2023/07/07 06:44:45;;;;;;;4.40;1.60;;;;;;;19.60;66.32;101436.20;108463;1257;71700;-70
2023/07/07 06:47:17;;;;;;;4.10;1.90;;;;;;;19.70;65.89;101438.39;107617;1257;71690;-69
2023/07/07 06:49:44;;;;;;;5.70;2.40;;;;;;;19.77;65.57;101442.66;107843;1257;60024;-69
2023/07/07 06:52:10;;;;;;;6.90;3.00;;;;;;;19.87;65.83;101445.27;107724;1256;59384;-69
2023/07/07 06:54:37;;;;;;;4.30;1.70;;;;;;;20.10;66.08;101444.52;108029;1257;74378;-69
2023/07/07 06:57:05;;;;;;;2.70;1.60;;;;;;;20.29;64.14;101440.38;107606;1259;70596;-69
2023/07/07 06:59:32;;;;;;;4.00;1.80;;;;;;;20.38;62.03;101437.64;107407;1258;71454;-69
2023/07/07 07:01:58;;;;;;;2.40;1.40;;;;;;;20.50;61.60;101439.30;107867;1256;61266;-68
2023/07/07 07:04:25;;;;;;;3.00;1.40;;;;;;;20.57;59.21;101444.43;107591;1256;59544;-69
2023/07/07 07:06:52;;;;;;;3.40;1.40;;;;;;;20.57;59.06;101444.77;107193;1256;74744;-68
2023/07/07 07:09:19;;;;;;;4.10;1.20;;;;;;;20.60;59.35;101444.84;106919;1257;69935;-68
2023/07/07 07:11:46;;;;;;;3.00;1.30;;;;;;;20.64;59.70;101445.20;107196;1256;72915;-68
2023/07/07 07:14:14;;;;;;;5.60;3.80;;;;;;;20.73;59.32;101447.14;107021;1257;61256;-68
2023/07/07 07:16:41;;;;;;;5.50;2.90;;;;;;;20.79;58.73;101448.98;107507;1256;60028;-69
2023/07/07 07:19:08;;;;;;;4.30;2.20;;;;;;;20.83;57.61;101446.46;107707;1256;74057;-69
2023/07/07 07:21:34;;;;;;;3.50;1.40;;;;;;;20.86;57.64;101446.38;107375;1256;71123;-69
2023/07/07 07:24:04;;;;;;;2.90;1.50;;;;;;;20.92;57.68;101443.11;107216;1261;72808;-69
2023/07/07 07:26:31;;;;;;;3.20;1.40;;;;;;;21.02;57.41;101441.78;107316;1257;61251;-68
2023/07/07 07:28:58;;;;;;;5.10;1.90;;;;;;;21.11;56.86;101430.39;106994;1257;61954;-68
2023/07/07 07:31:26;;;;;;;3.30;1.50;;;;;;;21.20;56.40;101433.39;106993;1257;73642;-71
2023/07/07 07:33:54;;;;;;;3.30;1.60;;;;;;;21.30;55.84;101431.96;107654;1256;71320;-69
2023/07/07 07:36:22;;;;;;;3.80;1.70;;;;;;;21.37;55.39;101433.73;108066;1256;71422;-67
2023/07/07 07:38:49;;;;;;;2.60;1.30;;;;;;;21.45;55.63;101427.77;107536;1256;61590;-70
2023/07/07 07:41:15;;;;;;;20.30;16.20;;;;;;;21.52;54.48;101431.90;106952;1256;60336;-70
2023/07/07 07:43:42;;;;;;;6.30;3.20;;;;;;;21.58;54.76;101431.89;106293;1256;74853;-70
2023/07/07 07:46:08;;;;;;;3.40;1.80;;;;;;;21.69;54.66;101428.39;106500;1257;70000;-69
2023/07/07 07:48:38;;;;;;;3.40;1.40;;;;;;;21.79;53.46;101423.19;106409;1256;70757;-71
2023/07/07 07:51:04;;;;;;;4.30;1.30;;;;;;;21.87;52.77;101427.91;106357;1257;61324;-70
2023/07/07 07:53:51;;;;;;;6.50;5.10;;;;;;;21.96;52.55;101424.08;107405;1257;59961;-71
2023/07/07 07:56:18;;;;;;;17.80;13.80;;;;;;;22.02;51.53;101426.71;107543;1257;73642;-71
2023/07/07 07:58:46;;;;;;;6.20;2.30;;;;;;;22.08;52.40;101428.20;106942;1258;71205;-70
2023/07/07 08:01:13;;;;;;;2.60;1.20;;;;;;;22.21;52.38;101428.04;106451;1256;74352;-72
2023/07/07 08:03:40;;;;;;;3.90;1.30;;;;;;;22.28;50.88;101427.48;106650;1256;61256;-73
2023/07/07 08:06:06;;;;;;;3.60;1.30;;;;;;;22.34;50.68;101432.30;106245;1257;61660;-72
2023/07/07 08:08:33;;;;;;;3.60;1.40;;;;;;;22.41;50.61;101430.08;106500;1256;74736;-72
2023/07/07 08:11:01;;;;;;;3.30;1.40;;;;;;;22.47;50.70;101430.54;106968;1256;70116;-71
2023/07/07 08:13:36;;;;;;;3.30;1.30;;;;;;;22.57;50.78;101430.87;106810;1257;71907;-72
2023/07/07 08:16:10;;;;;;;3.40;1.20;;;;;;;22.62;49.31;101435.58;106126;1257;61254;-70
2023/07/07 08:18:40;;;;;;;4.10;1.30;;;;;;;22.68;49.93;101435.59;106335;1256;61759;-70
2023/07/07 08:21:07;;;;;;;3.40;1.40;;;;;;;22.76;50.41;101432.85;106109;1257;73534;-71
2023/07/07 08:23:34;;;;;;;3.00;1.30;;;;;;;22.85;49.54;101436.55;106635;1257;71254;-71
2023/07/07 08:26:01;;;;;;;4.00;1.60;;;;;;;22.91;48.76;101433.20;106523;1256;70710;-70
2023/07/07 08:28:31;;;;;;;3.20;1.30;;;;;;;23.00;48.99;101437.94;107375;1256;61623;-70
2023/07/07 08:31:01;;;;;;;3.60;1.40;;;;;;;23.10;49.26;101434.49;107256;1257;60378;-70
2023/07/07 08:33:28;;;;;;;4.10;1.30;;;;;;;23.19;47.94;101436.84;107772;1256;74775;-72
2023/07/07 08:35:55;;;;;;;4.90;1.40;;;;;;;23.27;48.02;101433.73;108875;1256;69972;-71
2023/07/07 08:38:22;;;;;;;3.50;1.00;;;;;;;23.33;47.93;101441.32;108977;1256;72455;-70
2023/07/07 08:40:55;;;;;;;3.60;1.20;;;;;;;23.41;47.44;101438.54;108955;1256;59015;-69
2023/07/07 08:43:23;;;;;;;2.30;1.20;;;;;;;23.51;47.68;101439.00;109087;1256;59586;-70
2023/07/07 08:46:01;;;;;;;2.80;1.20;;;;;;;23.59;46.46;101438.00;108554;1256;73586;-70
2023/07/07 08:48:54;;;;;;;3.00;1.30;;;;;;;23.66;46.92;101434.26;108314;1256;70212;-71
2023/07/07 08:51:27;;;;;;;3.00;1.40;;;;;;;23.77;47.62;101435.16;106567;1256;72334;-72
2023/07/07 08:54:27;;;;;;;3.00;1.20;;;;;;;23.93;47.81;101431.93;106717;1257;61394;-70
2023/07/07 08:57:09;;;;;;;2.10;1.20;;;;;;;24.11;47.46;101435.20;106914;1256;61303;-70
2023/07/07 08:59:47;;;;;;;2.60;1.50;;;;;;;24.17;45.62;101433.77;106363;1256;73555;-70
2023/07/07 09:02:16;;;;;;;2.50;1.20;;;;;;;24.21;44.71;101434.80;107163;1256;70020;-70
2023/07/07 09:04:51;;;;;;;3.00;1.20;;;;;;;24.29;44.90;101439.16;106999;1256;71422;-70
2023/07/07 09:07:33;;;;;;;2.70;1.10;;;;;;;24.41;45.45;101438.19;106618;1256;61256;-70
2023/07/07 09:10:19;;;;;;;3.50;1.10;;;;;;;24.56;45.07;101439.52;106909;1256;59493;-70
2023/07/07 09:13:28;;;;;;;3.10;1.20;;;;;;;24.69;44.37;101440.49;106587;1255;73190;-71
2023/07/07 09:16:18;;;;;;;4.80;1.40;;;;;;;24.76;43.41;101435.88;106746;1256;69096;-70
2023/07/07 09:18:56;;;;;;;4.50;1.20;;;;;;;24.86;42.74;101437.89;106582;1256;72749;-71
2023/07/07 09:21:36;;;;;;;3.60;1.20;;;;;;;24.96;41.23;101438.19;107038;1256;61991;-70
2023/07/07 09:24:20;;;;;;;2.00;1.00;;;;;;;25.07;39.81;101438.85;106545;1256;61326;-70
2023/07/07 09:26:52;;;;;;;3.70;1.20;;;;;;;25.16;39.84;101438.05;107137;1256;74023;-70
2023/07/07 09:29:30;;;;;;;2.10;1.10;;;;;;;25.26;39.48;101442.79;106589;1256;70032;-73
2023/07/07 09:32:02;;;;;;;2.30;1.10;;;;;;;25.33;37.51;101447.48;106982;1257;71456;-71
2023/07/07 09:34:33;;;;;;;4.50;1.20;;;;;;;25.37;35.85;101440.29;107210;1257;60368;-70
2023/07/07 09:37:12;;;;;;;2.80;1.00;;;;;;;25.41;36.47;101443.88;106688;1256;61283;-70
2023/07/07 09:39:48;;;;;;;1.40;0.90;;;;;;;25.45;35.99;101436.98;106597;1256;73535;-70
2023/07/07 09:42:41;;;;;;;7.50;1.20;;;;;;;25.43;35.17;101438.45;107281;1257;70031;-71
2023/07/07 09:45:27;;;;;;;5.00;1.20;;;;;;;25.49;35.45;101438.18;106852;1256;73092;-72
2023/07/07 09:47:56;;;;;;;4.30;1.10;;;;;;;25.57;36.86;101432.73;106742;1256;61360;-70
2023/07/07 09:50:45;;;;;;;3.30;1.00;;;;;;;25.67;36.60;101439.05;106672;1256;61289;-71
2023/07/07 09:53:29;;;;;;;2.90;1.20;;;;;;;25.77;35.09;101442.80;106894;1256;73455;-70
2023/07/07 09:56:21;;;;;;;2.80;0.90;;;;;;;25.82;35.22;101443.70;106896;1256;71047;-70
2023/07/07 09:59:07;;;;;;;2.50;0.90;;;;;;;25.90;35.90;101441.83;106643;1258;73137;-70
2023/07/07 10:01:36;;;;;;;3.50;1.00;;;;;;;26.03;35.50;101443.80;107059;1256;62322;-72
2023/07/07 10:04:12;;;;;;;3.00;1.20;;;;;;;26.01;34.59;101444.02;106777;1256;61830;-69
2023/07/07 10:06:49;;;;;;;23.60;20.50;;;;;;;26.09;35.53;101438.39;106637;1256;74007;-70
2023/07/07 10:09:16;;;;;;;3.00;1.20;;;;;;;26.23;36.88;101436.91;106730;1256;71404;-70
2023/07/07 10:11:44;;;;;;;3.10;1.00;;;;;;;26.36;35.61;101437.40;106578;1259;72200;-71
2023/07/07 10:14:16;;;;;;;3.00;1.10;;;;;;;26.45;35.85;101437.48;106812;1259;62118;-70
2023/07/07 10:17:10;;;;;;;2.50;1.10;;;;;;;26.60;35.45;101436.61;106819;1256;61145;-71
2023/07/07 10:19:44;;;;;;;2.70;1.00;;;;;;;26.70;33.60;101437.10;106635;1256;74854;-71
2023/07/07 10:22:13;;;;;;;2.10;1.00;;;;;;;26.64;33.29;101438.01;106926;1256;70923;-71
2023/07/07 10:24:41;;;;;;;2.80;1.20;;;;;;;26.63;33.12;101436.42;106640;1257;72778;-71
2023/07/07 10:27:12;;;;;;;2.60;1.00;;;;;;;26.64;33.10;101435.23;106865;1256;61371;-71
2023/07/07 10:29:42;;;;;;;3.10;1.60;;;;;;;26.66;33.27;101432.73;107520;1255;61176;-71
2023/07/07 10:32:15;;;;;;;3.20;1.20;;;;;;;26.66;33.65;101433.27;107119;1256;75543;-72
2023/07/07 10:34:45;;;;;;;4.00;1.10;;;;;;;26.73;35.08;101425.41;107080;1256;71289;-71
2023/07/07 10:37:19;;;;;;;3.50;1.30;;;;;;;26.86;34.98;101424.92;106948;1256;71481;-71
2023/07/07 10:39:54;;;;;;;2.60;1.20;;;;;;;27.01;34.77;101421.88;107099;1256;61293;-70
2023/07/07 10:42:23;;;;;;;2.90;1.20;;;;;;;27.11;33.94;101417.71;107232;1256;61264;-71
2023/07/07 10:44:52;;;;;;;2.70;1.10;;;;;;;27.15;34.50;101416.57;107313;1256;74194;-71
2023/07/07 10:47:28;;;;;;;3.10;1.10;;;;;;;27.17;34.27;101423.66;106828;1255;71264;-71
2023/07/07 10:49:57;;;;;;;3.40;1.20;;;;;;;27.11;32.53;101419.98;106656;1257;72788;-71
2023/07/07 10:52:43;;;;;;;2.20;1.00;;;;;;;27.06;33.24;101416.64;106883;1256;61304;-70
2023/07/07 10:55:55;;;;;;;2.70;1.20;;;;;;;27.04;33.04;101417.85;106811;1256;62466;-70
2023/07/07 10:58:36;;;;;;;2.50;1.00;;;;;;;27.02;32.99;101419.26;106849;1256;74808;-70
2023/07/07 11:01:21;;;;;;;1.90;0.90;;;;;;;26.94;32.77;101419.40;108790;1255;69965;-71
2023/07/07 11:04:10;;;;;;;4.50;0.90;;;;;;;26.95;33.53;101416.30;109072;1256;72846;-70
2023/07/07 11:06:52;;;;;;;2.80;1.10;;;;;;;27.09;35.22;101412.30;107110;1260;61289;-70
2023/07/07 11:09:29;;;;;;;2.10;1.00;;;;;;;27.30;33.69;101418.05;106829;1256;61837;-72
2023/07/07 11:12:18;;;;;;;2.40;1.00;;;;;;;27.31;31.34;101419.64;106496;1260;74821;-70
2023/07/07 11:15:15;;;;;;;2.30;1.20;;;;;;;27.14;30.85;101423.05;106543;1256;71216;-71
2023/07/07 11:18:14;;;;;;;2.20;1.00;;;;;;;27.06;32.07;101427.27;106949;1256;71658;-72
2023/07/07 11:21:07;;;;;;;1.60;0.90;;;;;;;27.01;31.43;101432.16;106733;1255;61698;-75
2023/07/07 11:24:04;;;;;;;2.60;1.10;;;;;;;26.98;31.40;101424.91;107013;1256;61977;-72
2023/07/07 11:26:57;;;;;;;2.70;1.10;;;;;;;27.14;32.47;101421.68;106592;1256;75296;-74
2023/07/07 11:29:42;;;;;;;2.50;1.20;;;;;;;27.35;32.60;101419.91;106678;1257;71501;-72
2023/07/07 11:32:45;;;;;;;2.50;1.10;;;;;;;27.49;32.57;101418.84;107052;1256;73167;-71
2023/07/07 11:35:33;;;;;;;2.80;1.10;;;;;;;27.53;31.29;101419.12;106962;1257;60915;-71
2023/07/07 11:38:28;;;;;;;1.60;1.00;;;;;;;27.48;31.33;101422.21;107632;1256;59934;-71